createdAt,value
2022-12-11T00:00:14.749Z,-2.4
2022-12-11T00:01:14.885Z,-2.4
2022-12-11T00:02:15.076Z,-2.48
2022-12-11T00:03:16.216Z,-2.32
2022-12-11T00:04:15.354Z,-2.48
2022-12-11T00:05:15.477Z,-2.4
2022-12-11T00:06:15.606Z,-2.32
2022-12-11T00:07:15.754Z,-2.24
2022-12-11T00:08:15.913Z,-2.48
2022-12-11T00:09:16.003Z,-2.4
2022-12-11T00:10:16.118Z,-2.4
2022-12-11T00:11:16.262Z,-2.4
2022-12-11T00:12:16.413Z,-2.4
2022-12-11T00:13:16.566Z,-2.4
2022-12-11T00:14:16.717Z,-2.24
2022-12-11T00:15:16.831Z,-2.32
2022-12-11T00:16:17.011Z,-2.4
2022-12-11T00:17:17.460Z,-2.32
2022-12-11T00:18:17.231Z,-2.4
2022-12-11T00:19:17.367Z,-2.4
2022-12-11T00:20:17.531Z,-2.48
2022-12-11T00:21:17.629Z,-2.48
2022-12-11T00:22:17.779Z,-2.48
2022-12-11T00:23:17.929Z,-2.48
2022-12-11T00:24:18.078Z,-2.64
2022-12-11T00:25:18.235Z,-2.64
2022-12-11T00:26:18.392Z,-2.48
2022-12-11T00:27:18.557Z,-2.32
2022-12-11T00:28:18.676Z,-2.48
2022-12-11T00:29:18.837Z,-2.48
2022-12-11T00:30:18.997Z,-2.4
2022-12-11T00:31:19.182Z,-2.32
2022-12-11T00:32:19.313Z,-2.48
2022-12-11T00:33:19.406Z,-2.64
2022-12-11T00:34:19.540Z,-2.4
2022-12-11T00:35:19.648Z,-2.4
2022-12-11T00:36:19.793Z,-2.48
2022-12-11T00:37:19.927Z,-2.64
2022-12-11T00:38:20.058Z,-2.48
2022-12-11T00:39:20.206Z,-2.48
2022-12-11T00:40:20.297Z,-2.48
2022-12-11T00:41:20.462Z,-2.48
2022-12-11T00:42:20.604Z,-2.48
2022-12-11T00:43:20.761Z,-2.64
2022-12-11T00:44:20.911Z,-2.48
2022-12-11T00:45:21.086Z,-2.48
2022-12-11T00:46:21.331Z,-2.64
2022-12-11T00:47:21.315Z,-2.64
2022-12-11T00:48:21.472Z,-2.4
2022-12-11T00:49:21.627Z,-2.4
2022-12-11T00:50:21.770Z,-2.48
2022-12-11T00:51:21.930Z,-2.64
2022-12-11T00:52:22.074Z,-2.4
2022-12-11T00:53:22.224Z,-2.64
2022-12-11T00:54:22.383Z,-2.48
2022-12-11T00:55:22.517Z,-2.64
2022-12-11T00:56:22.679Z,-2.64
2022-12-11T00:57:22.827Z,-2.72
2022-12-11T00:58:22.981Z,-2.64
2022-12-11T00:59:23.135Z,-2.64
2022-12-11T01:00:23.288Z,-2.64
2022-12-11T01:01:23.442Z,-2.64
2022-12-11T01:02:23.569Z,-2.72
2022-12-11T01:03:23.632Z,-2.72
2022-12-11T01:04:23.789Z,-2.72
2022-12-11T01:05:23.893Z,-2.48
2022-12-11T01:06:24.015Z,-2.64
2022-12-11T01:07:24.142Z,-2.72
2022-12-11T01:08:24.336Z,-2.72
2022-12-11T01:09:24.450Z,-2.64
2022-12-11T01:10:24.684Z,-2.72
2022-12-11T01:11:24.703Z,-2.4
2022-12-11T01:12:24.845Z,-2.64
2022-12-11T01:13:25.001Z,-2.48
2022-12-11T01:14:25.152Z,-2.48
2022-12-11T01:15:25.309Z,-2.48
2022-12-11T01:16:25.484Z,-2.48
2022-12-11T01:17:25.541Z,-2.32
2022-12-11T01:18:25.706Z,-2.64
2022-12-11T01:19:25.865Z,-2.48
2022-12-11T01:20:26.015Z,-2.48
2022-12-11T01:21:26.158Z,-2.4
2022-12-11T01:22:26.272Z,-2.4
2022-12-11T01:23:26.432Z,-2.32
2022-12-11T01:24:26.570Z,-2
2022-12-11T01:25:26.711Z,-2.48
2022-12-11T01:26:26.873Z,-2.4
2022-12-11T01:27:27.023Z,-2.64
2022-12-11T01:28:27.179Z,-2.64
2022-12-11T01:29:27.315Z,-2.72
2022-12-11T01:30:27.557Z,-2.72
2022-12-11T01:31:27.617Z,-2.72
2022-12-11T01:32:27.727Z,-2.72
2022-12-11T01:33:27.881Z,-2.72
2022-12-11T01:34:27.976Z,-2.4
2022-12-11T01:35:28.136Z,-2.64
2022-12-11T01:36:28.280Z,-2.48
2022-12-11T01:37:28.457Z,-2.72
2022-12-11T01:38:28.572Z,-2.4
2022-12-11T01:39:28.744Z,-2.64
2022-12-11T01:40:28.907Z,-2.72
2022-12-11T01:41:29.053Z,-2.72
2022-12-11T01:42:29.191Z,-2.8
2022-12-11T01:43:29.344Z,-2.72
2022-12-11T01:44:29.498Z,-2.72
2022-12-11T01:45:29.653Z,-2.72
2022-12-11T01:46:29.801Z,-2.64
2022-12-11T01:47:29.897Z,-2.72
2022-12-11T01:48:30.048Z,-2.8
2022-12-11T01:49:30.201Z,-2.8
2022-12-11T01:50:30.296Z,-2.88
2022-12-11T01:51:30.453Z,-2.8
2022-12-11T01:52:30.608Z,-2.48
2022-12-11T01:53:30.759Z,-2.72
2022-12-11T01:54:30.918Z,-2.72
2022-12-11T01:55:31.077Z,-2.8
2022-12-11T01:56:31.233Z,-2.8
2022-12-11T01:57:31.378Z,-2.8
2022-12-11T01:58:31.508Z,-2.8
2022-12-11T01:59:31.704Z,-2.8
2022-12-11T02:00:31.807Z,-2.8
2022-12-11T02:01:32.039Z,-2.72
2022-12-11T02:02:32.134Z,-2.8
2022-12-11T02:03:32.284Z,-2.8
2022-12-11T02:04:32.422Z,-2.72
2022-12-11T02:05:32.549Z,-2.88
2022-12-11T02:06:32.673Z,-2.8
2022-12-11T02:07:32.825Z,-2.8
2022-12-11T02:08:32.985Z,-2.64
2022-12-11T02:09:33.130Z,-2.64
2022-12-11T02:10:33.282Z,-2.72
2022-12-11T02:11:33.442Z,-2.72
2022-12-11T02:12:33.594Z,-2.72
2022-12-11T02:13:33.745Z,-2.88
2022-12-11T02:14:33.850Z,-2.8
2022-12-11T02:15:33.979Z,-2.88
2022-12-11T02:16:34.180Z,-2.88
2022-12-11T02:17:34.292Z,-3.04
2022-12-11T02:18:34.392Z,-2.88
2022-12-11T02:19:34.538Z,-2.88
2022-12-11T02:20:34.696Z,-2.72
2022-12-11T02:21:34.845Z,-2.88
2022-12-11T02:22:34.998Z,-2.88
2022-12-11T02:23:35.156Z,-3.12
2022-12-11T02:24:35.253Z,-2.88
2022-12-11T02:25:35.355Z,-3.12
2022-12-11T02:26:35.506Z,-3.12
2022-12-11T02:27:35.661Z,-3.04
2022-12-11T02:28:35.804Z,-2.8
2022-12-11T02:29:35.969Z,-2.88
2022-12-11T02:30:36.105Z,-2.88
2022-12-11T02:31:36.282Z,-3.04
2022-12-11T02:32:36.411Z,-2.8
2022-12-11T02:33:36.562Z,-2.72
2022-12-11T02:34:36.721Z,-3.04
2022-12-11T02:35:36.866Z,-2.8
2022-12-11T02:36:37.353Z,-2.72
2022-12-11T02:37:37.182Z,-2.88
2022-12-11T02:38:37.266Z,-3.12
2022-12-11T02:39:37.760Z,-2.72
2022-12-11T02:40:37.932Z,-3.04
2022-12-11T02:41:38.109Z,-2.88
2022-12-11T02:42:38.213Z,-3.12
2022-12-11T02:43:38.373Z,-3.2
2022-12-11T02:44:38.442Z,-3.2
2022-12-11T02:45:38.883Z,-3.12
2022-12-11T02:46:38.966Z,-3.2
2022-12-11T02:47:38.601Z,-3.12
2022-12-11T02:48:38.746Z,-3.04
2022-12-11T02:49:38.888Z,-3.12
2022-12-11T02:50:39.029Z,-3.12
2022-12-11T02:51:39.190Z,-3.2
2022-12-11T02:52:39.344Z,-3.12
2022-12-11T02:53:39.443Z,-3.12
2022-12-11T02:54:39.550Z,-3.04
2022-12-11T02:55:39.682Z,-3.12
2022-12-11T02:56:39.850Z,-3.12
2022-12-11T02:57:40.008Z,-3.12
2022-12-11T02:58:40.153Z,-3.2
2022-12-11T02:59:40.270Z,-3.28
2022-12-11T03:00:40.388Z,-3.28
2022-12-11T03:01:40.614Z,-3.28
2022-12-11T03:02:40.722Z,-2.8
2022-12-11T03:03:40.872Z,-3.2
2022-12-11T03:04:41.025Z,-2.72
2022-12-11T03:05:41.157Z,-3.12
2022-12-11T03:06:41.314Z,-3.12
2022-12-11T03:07:41.467Z,-3.12
2022-12-11T03:08:41.614Z,-3.12
2022-12-11T03:09:41.765Z,-3.2
2022-12-11T03:10:41.903Z,-3.28
2022-12-11T03:11:42.069Z,-3.2
2022-12-11T03:12:42.219Z,-3.12
2022-12-11T03:13:42.369Z,-2.8
2022-12-11T03:14:42.520Z,-2.8
2022-12-11T03:15:42.661Z,-3.12
2022-12-11T03:16:42.943Z,-2.8
2022-12-11T03:17:42.985Z,-2.88
2022-12-11T03:18:43.137Z,-2.8
2022-12-11T03:19:43.225Z,-2.8
2022-12-11T03:20:43.397Z,-3.12
2022-12-11T03:21:43.535Z,-3.28
2022-12-11T03:22:43.686Z,-3.04
2022-12-11T03:23:43.829Z,-3.12
2022-12-11T03:24:43.988Z,-3.12
2022-12-11T03:25:44.102Z,-2.72
2022-12-11T03:26:44.205Z,-2.88
2022-12-11T03:27:44.339Z,-3.04
2022-12-11T03:28:44.493Z,-2.8
2022-12-11T03:29:44.638Z,-3.12
2022-12-11T03:30:44.875Z,-3.12
2022-12-11T03:31:44.884Z,-3.2
2022-12-11T03:32:44.996Z,-3.2
2022-12-11T03:33:45.159Z,-3.2
2022-12-11T03:34:45.302Z,-3.2
2022-12-11T03:35:45.459Z,-3.2
2022-12-11T03:36:45.567Z,-3.12
2022-12-11T03:37:45.718Z,-3.12
2022-12-11T03:38:45.864Z,-3.2
2022-12-11T03:39:46.012Z,-3.12
2022-12-11T03:40:46.163Z,-3.2
2022-12-11T03:41:46.312Z,-3.2
2022-12-11T03:42:46.465Z,-3.28
2022-12-11T03:43:46.612Z,-3.44
2022-12-11T03:44:46.779Z,-3.28
2022-12-11T03:45:47.011Z,-3.2
2022-12-11T03:46:47.027Z,-3.12
2022-12-11T03:47:47.117Z,-3.28
2022-12-11T03:48:47.275Z,-3.2
2022-12-11T03:49:47.384Z,-3.28
2022-12-11T03:50:47.521Z,-3.28
2022-12-11T03:51:47.677Z,-3.28
2022-12-11T03:52:47.828Z,-3.28
2022-12-11T03:53:47.989Z,-3.44
2022-12-11T03:54:48.121Z,-3.52
2022-12-11T03:55:48.289Z,-3.44
2022-12-11T03:56:48.435Z,-3.28
2022-12-11T03:57:48.582Z,-3.12
2022-12-11T03:58:48.742Z,-3.28
2022-12-11T03:59:48.889Z,-3.44
2022-12-11T04:00:49.034Z,-3.44
2022-12-11T04:01:49.246Z,-3.44
2022-12-11T04:02:49.343Z,-3.44
2022-12-11T04:03:49.492Z,-3.44
2022-12-11T04:04:49.653Z,-3.28
2022-12-11T04:05:49.745Z,-3.44
2022-12-11T04:06:49.897Z,-3.28
2022-12-11T04:07:50.037Z,-3.44
2022-12-11T04:08:50.146Z,-3.52
2022-12-11T04:09:50.307Z,-3.44
2022-12-11T04:10:50.407Z,-3.44
2022-12-11T04:11:50.553Z,-3.44
2022-12-11T04:12:50.706Z,-3.04
2022-12-11T04:13:50.850Z,-3.28
2022-12-11T04:14:51.528Z,-3.52
2022-12-11T04:15:51.209Z,-3.52
2022-12-11T04:16:51.250Z,-3.44
2022-12-11T04:17:51.412Z,-3.28
2022-12-11T04:18:51.572Z,-3.28
2022-12-11T04:19:51.717Z,-3.12
2022-12-11T04:20:51.873Z,-3.28
2022-12-11T04:21:52.021Z,-3.28
2022-12-11T04:22:52.167Z,-3.44
2022-12-11T04:23:52.279Z,-3.44
2022-12-11T04:24:52.420Z,-3.52
2022-12-11T04:25:52.587Z,-3.44
2022-12-11T04:26:52.731Z,-3.52
2022-12-11T04:27:52.884Z,-3.44
2022-12-11T04:28:53.043Z,-3.44
2022-12-11T04:29:53.185Z,-3.28
2022-12-11T04:30:53.332Z,-3.12
2022-12-11T04:31:53.440Z,-3.04
2022-12-11T04:32:53.580Z,-3.44
2022-12-11T04:33:53.751Z,-3.44
2022-12-11T04:34:53.885Z,-3.44
2022-12-11T04:35:54.038Z,-3.28
2022-12-11T04:36:54.196Z,-3.28
2022-12-11T04:37:54.338Z,-3.28
2022-12-11T04:38:54.487Z,-3.44
2022-12-11T04:39:54.642Z,-3.44
2022-12-11T04:40:54.795Z,-3.28
2022-12-11T04:41:54.901Z,-3.28
2022-12-11T04:42:55.041Z,-3.44
2022-12-11T04:43:55.190Z,-3.52
2022-12-11T04:44:55.325Z,-3.28
2022-12-11T04:45:55.440Z,-3.52
2022-12-11T04:46:55.556Z,-3.44
2022-12-11T04:47:55.708Z,-3.44
2022-12-11T04:48:57.535Z,-3.52
2022-12-11T04:49:56.006Z,-3.44
2022-12-11T04:50:56.111Z,-3.52
2022-12-11T04:51:56.264Z,-3.52
2022-12-11T04:52:56.361Z,-3.44
2022-12-11T04:53:56.500Z,-3.52
2022-12-11T04:54:56.659Z,-3.6
2022-12-11T04:55:56.773Z,-3.52
2022-12-11T04:56:56.866Z,-3.52
2022-12-11T04:57:57.015Z,-3.52
2022-12-11T04:58:57.125Z,-3.52
2022-12-11T04:59:57.271Z,-3.52
2022-12-11T05:00:57.413Z,-3.52
2022-12-11T05:01:58.291Z,-3.44
2022-12-11T05:02:57.775Z,-3.28
2022-12-11T05:03:57.863Z,-3.44
2022-12-11T05:04:58.561Z,-3.52
2022-12-11T05:05:58.214Z,-3.52
2022-12-11T05:06:59.108Z,-3.52
2022-12-11T05:07:58.495Z,-3.6
2022-12-11T05:08:58.625Z,-3.2
2022-12-11T05:09:58.720Z,-3.52
2022-12-11T05:10:59.374Z,-3.6
2022-12-11T05:11:59.371Z,-3.52
2022-12-11T05:12:59.179Z,-3.44
2022-12-11T05:13:59.333Z,-3.28
2022-12-11T05:14:59.445Z,-3.2
2022-12-11T05:15:59.584Z,-3.44
2022-12-11T05:16:59.693Z,-3.44
2022-12-11T05:17:59.783Z,-3.6
2022-12-11T05:18:59.889Z,-3.52
2022-12-11T05:20:00.074Z,-3.28
2022-12-11T05:21:00.213Z,-3.52
2022-12-11T05:22:00.358Z,-3.52
2022-12-11T05:23:00.510Z,-3.6
2022-12-11T05:24:00.651Z,-3.6
2022-12-11T05:25:00.770Z,-3.6
2022-12-11T05:26:00.874Z,-3.68
2022-12-11T05:27:00.997Z,-3.6
2022-12-11T05:28:01.161Z,-3.68
2022-12-11T05:29:01.263Z,-3.84
2022-12-11T05:30:01.418Z,-3.84
2022-12-11T05:31:01.623Z,-3.84
2022-12-11T05:32:01.655Z,-3.68
2022-12-11T05:33:01.812Z,-3.68
2022-12-11T05:34:01.966Z,-3.92
2022-12-11T05:35:02.120Z,-3.84
2022-12-11T05:36:02.277Z,-3.84
2022-12-11T05:37:02.434Z,-3.84
2022-12-11T05:38:02.562Z,-3.84
2022-12-11T05:39:02.682Z,-3.84
2022-12-11T05:40:02.778Z,-3.68
2022-12-11T05:41:02.931Z,-3.6
2022-12-11T05:42:03.083Z,-3.6
2022-12-11T05:43:03.181Z,-3.84
2022-12-11T05:44:03.328Z,-3.84
2022-12-11T05:45:03.490Z,-3.92
2022-12-11T05:46:03.625Z,-3.84
2022-12-11T05:47:03.740Z,-3.84
2022-12-11T05:48:03.890Z,-3.84
2022-12-11T05:49:04.042Z,-3.84
2022-12-11T05:50:04.152Z,-3.92
2022-12-11T05:51:04.291Z,-3.68
2022-12-11T05:52:04.456Z,-3.84
2022-12-11T05:53:04.595Z,-4
2022-12-11T05:54:04.746Z,-3.92
2022-12-11T05:55:04.905Z,-4
2022-12-11T05:56:05.061Z,-3.92
2022-12-11T05:57:05.212Z,-3.92
2022-12-11T05:58:05.362Z,-3.84
2022-12-11T05:59:05.503Z,-3.92
2022-12-11T06:00:05.659Z,-3.92
2022-12-11T06:01:05.797Z,-3.92
2022-12-11T06:02:06.060Z,-3.68
2022-12-11T06:03:06.140Z,-3.84
2022-12-11T06:04:06.212Z,-3.68
2022-12-11T06:05:06.360Z,-3.68
2022-12-11T06:06:06.514Z,-3.44
2022-12-11T06:07:06.615Z,-3.44
2022-12-11T06:08:06.790Z,-3.68
2022-12-11T06:09:06.916Z,-3.68
2022-12-11T06:10:07.072Z,-3.68
2022-12-11T06:11:07.231Z,-3.52
2022-12-11T06:12:07.380Z,-3.2
2022-12-11T06:13:07.538Z,-3.68
2022-12-11T06:14:07.683Z,-3.52
2022-12-11T06:15:07.986Z,-3.12
2022-12-11T06:16:07.990Z,-3.68
2022-12-11T06:17:08.137Z,-3.68
2022-12-11T06:18:08.291Z,-3.52
2022-12-11T06:19:08.432Z,-3.84
2022-12-11T06:20:08.590Z,-3.44
2022-12-11T06:21:08.739Z,-3.84
2022-12-11T06:22:08.935Z,-3.92
2022-12-11T06:23:09.046Z,-3.92
2022-12-11T06:24:09.198Z,-3.68
2022-12-11T06:25:09.707Z,-3.92
2022-12-11T06:26:09.440Z,-3.92
2022-12-11T06:27:09.600Z,-4
2022-12-11T06:28:09.736Z,-3.84
2022-12-11T06:29:12.851Z,-3.92
2022-12-11T06:30:10.058Z,-3.84
2022-12-11T06:31:10.212Z,-4
2022-12-11T06:32:10.337Z,-4
2022-12-11T06:33:10.506Z,-4
2022-12-11T06:34:10.652Z,-3.92
2022-12-11T06:35:10.976Z,-4
2022-12-11T06:36:10.964Z,-4
2022-12-11T06:37:11.105Z,-4
2022-12-11T06:38:11.261Z,-4
2022-12-11T06:39:11.369Z,-3.92
2022-12-11T06:40:11.519Z,-3.84
2022-12-11T06:41:11.664Z,-3.52
2022-12-11T06:42:11.768Z,-3.92
2022-12-11T06:43:11.921Z,-4
2022-12-11T06:44:12.104Z,-4.08
2022-12-11T06:45:12.435Z,-4
2022-12-11T06:46:12.414Z,-4.08
2022-12-11T06:47:12.470Z,-4.16
2022-12-11T06:48:12.623Z,-4.16
2022-12-11T06:49:12.800Z,-4.16
2022-12-11T06:50:12.938Z,-4.16
2022-12-11T06:51:13.083Z,-4.4
2022-12-11T06:52:18.123Z,-4.4
2022-12-11T06:53:13.366Z,-4.32
2022-12-11T06:54:13.486Z,-4.48
2022-12-11T06:55:13.875Z,-4.32
2022-12-11T06:56:13.808Z,-4.32
2022-12-11T06:57:13.933Z,-4.4
2022-12-11T06:58:14.124Z,-4.08
2022-12-11T06:59:14.242Z,-4.16
2022-12-11T07:00:14.403Z,-4.16
2022-12-11T07:01:14.658Z,-4.32
2022-12-11T07:02:14.719Z,-4.08
2022-12-11T07:03:14.849Z,-4.16
2022-12-11T07:04:14.999Z,-4.16
2022-12-11T07:05:15.155Z,-4.32
2022-12-11T07:06:15.294Z,-4.32
2022-12-11T07:07:15.457Z,-4.32
2022-12-11T07:08:15.603Z,-4.4
2022-12-11T07:09:15.709Z,-4.32
2022-12-11T07:10:15.854Z,-4.08
2022-12-11T07:11:16.002Z,-4.16
2022-12-11T07:12:16.157Z,-4.16
2022-12-11T07:13:16.315Z,-4.16
2022-12-11T07:14:16.452Z,-3.68
2022-12-11T07:15:16.619Z,-4.08
2022-12-11T07:16:16.815Z,-4.08
2022-12-11T07:17:16.857Z,-4.16
2022-12-11T07:18:16.971Z,-4.08
2022-12-11T07:19:17.105Z,-4
2022-12-11T07:20:17.280Z,-4.08
2022-12-11T07:21:17.426Z,-4.32
2022-12-11T07:22:17.573Z,-4.32
2022-12-11T07:23:17.722Z,-4.32
2022-12-11T07:24:17.881Z,-4.32
2022-12-11T07:25:18.024Z,-4.4
2022-12-11T07:26:18.178Z,-4.08
2022-12-11T07:27:18.281Z,-4.16
2022-12-11T07:28:18.431Z,-4.16
2022-12-11T07:29:18.575Z,-4.4
2022-12-11T07:30:18.731Z,-4.32
2022-12-11T07:31:18.938Z,-4.08
2022-12-11T07:32:19.100Z,-3.92
2022-12-11T07:33:19.207Z,-4
2022-12-11T07:34:19.283Z,-3.52
2022-12-11T07:35:19.448Z,-3.84
2022-12-11T07:36:19.581Z,-4.08
2022-12-11T07:37:19.749Z,-4.16
2022-12-11T07:38:19.897Z,-3.68
2022-12-11T07:39:20.043Z,-3.84
2022-12-11T07:40:20.200Z,-4
2022-12-11T07:41:20.307Z,-4.16
2022-12-11T07:42:20.434Z,-4
2022-12-11T07:43:20.551Z,-4.08
2022-12-11T07:44:20.708Z,-4.16
2022-12-11T07:45:20.861Z,-4.16
2022-12-11T07:46:21.064Z,-4.08
2022-12-11T07:47:21.145Z,-3.6
2022-12-11T07:48:21.307Z,-4
2022-12-11T07:49:21.456Z,-4
2022-12-11T07:50:21.626Z,-4
2022-12-11T07:51:21.770Z,-3.84
2022-12-11T07:52:21.907Z,-3.92
2022-12-11T07:53:22.020Z,-3.68
2022-12-11T07:54:22.118Z,-3.52
2022-12-11T07:55:22.290Z,-3.6
2022-12-11T07:56:22.417Z,-3.6
2022-12-11T07:57:22.566Z,-3.52
2022-12-11T07:58:22.721Z,-3.52
2022-12-11T07:59:22.872Z,-3.68
2022-12-11T08:00:23.026Z,-3.68
2022-12-11T08:01:23.147Z,-3.52
2022-12-11T08:02:23.361Z,-3.68
2022-12-11T08:03:23.440Z,-3.6
2022-12-11T08:04:23.584Z,-3.84
2022-12-11T08:05:23.678Z,-3.84
2022-12-11T08:06:23.825Z,-3.84
2022-12-11T08:07:23.996Z,-3.84
2022-12-11T08:08:24.164Z,-3.68
2022-12-11T08:09:24.292Z,-3.68
2022-12-11T08:10:24.393Z,-3.6
2022-12-11T08:11:24.553Z,-3.6
2022-12-11T08:12:24.699Z,-3.84
2022-12-11T08:13:24.840Z,-3.68
2022-12-11T08:14:24.979Z,-3.84
2022-12-11T08:15:25.127Z,-3.92
2022-12-11T08:16:25.777Z,-3.84
2022-12-11T08:17:29.534Z,-3.92
2022-12-11T08:18:25.490Z,-3.52
2022-12-11T08:19:25.585Z,-3.68
2022-12-11T08:20:25.750Z,-3.6
2022-12-11T08:21:25.906Z,-3.44
2022-12-11T08:22:26.055Z,-3.44
2022-12-11T08:23:26.204Z,-3.44
2022-12-11T08:24:26.362Z,-3.6
2022-12-11T08:25:26.514Z,-3.52
2022-12-11T08:26:26.673Z,-3.6
2022-12-11T08:27:26.768Z,-3.44
2022-12-11T08:28:27.344Z,-3.6
2022-12-11T08:29:27.053Z,-3.6
2022-12-11T08:30:27.232Z,-3.6
2022-12-11T08:31:27.389Z,-3.68
2022-12-11T08:32:27.501Z,-3.6
2022-12-11T08:33:27.603Z,-3.44
2022-12-11T08:34:27.763Z,-3.44
2022-12-11T08:35:27.860Z,-3.04
2022-12-11T08:36:28.023Z,-3.12
2022-12-11T08:37:28.172Z,-3.12
2022-12-11T08:38:28.336Z,-3.04
2022-12-11T08:39:28.501Z,-3.28
2022-12-11T08:40:28.635Z,-2.88
2022-12-11T08:41:28.786Z,-3.2
2022-12-11T08:42:28.945Z,-3.28
2022-12-11T08:43:29.111Z,-3.28
2022-12-11T08:44:29.246Z,-3.12
2022-12-11T08:45:29.383Z,-3.28
2022-12-11T08:46:29.544Z,-3.52
2022-12-11T08:47:29.677Z,-3.52
2022-12-11T08:48:29.840Z,-3.44
2022-12-11T08:49:34.150Z,-3.44
2022-12-11T08:50:30.144Z,-3.28
2022-12-11T08:51:30.244Z,-3.28
2022-12-11T08:52:30.392Z,-3.2
2022-12-11T08:53:30.556Z,-3.28
2022-12-11T08:54:30.701Z,-3.28
2022-12-11T08:55:30.812Z,-2.88
2022-12-11T08:56:30.960Z,-2.88
2022-12-11T08:57:31.099Z,-3.12
2022-12-11T08:58:31.254Z,-2.88
2022-12-11T08:59:31.429Z,-2.72
2022-12-11T09:00:31.547Z,-2.72
2022-12-11T09:01:31.753Z,-2.8
2022-12-11T09:02:31.921Z,-3.12
2022-12-11T09:03:31.968Z,-2.88
2022-12-11T09:04:32.158Z,-2.8
2022-12-11T09:05:32.319Z,-2.72
2022-12-11T09:06:32.474Z,-2.8
2022-12-11T09:07:32.619Z,-2.32
2022-12-11T09:08:32.822Z,-2.4
2022-12-11T09:09:32.920Z,-2.48
2022-12-11T09:10:33.080Z,-2.32
2022-12-11T09:11:33.233Z,-2.32
2022-12-11T09:12:33.380Z,-1.84
2022-12-11T09:13:33.485Z,-2.08
2022-12-11T09:14:33.641Z,-2.32
2022-12-11T09:15:33.837Z,-2.32
2022-12-11T09:16:33.939Z,-2.48
2022-12-11T09:17:34.037Z,-2.08
2022-12-11T09:18:34.169Z,-2.08
2022-12-11T09:19:34.332Z,-2.08
2022-12-11T09:20:34.477Z,-1.84
2022-12-11T09:21:34.643Z,-1.92
2022-12-11T09:22:34.781Z,-2.08
2022-12-11T09:23:34.927Z,-1.84
2022-12-11T09:24:35.067Z,-1.6
2022-12-11T09:25:35.198Z,-1.6
2022-12-11T09:26:35.294Z,-1.68
2022-12-11T09:27:35.436Z,-2.08
2022-12-11T09:28:35.597Z,-2.32
2022-12-11T09:29:35.753Z,-2.32
2022-12-11T09:30:35.916Z,-2.32
2022-12-11T09:31:35.995Z,-2.32
2022-12-11T09:32:36.121Z,-2.4
2022-12-11T09:33:36.244Z,-2.4
2022-12-11T09:34:36.413Z,-2.64
2022-12-11T09:35:36.555Z,-2.32
2022-12-11T09:36:36.725Z,-2.72
2022-12-11T09:37:36.861Z,-2.64
2022-12-11T09:38:37.007Z,-2.4
2022-12-11T09:39:37.161Z,-2.4
2022-12-11T09:40:37.319Z,-2.48
2022-12-11T09:41:37.469Z,-2.48
2022-12-11T09:42:37.617Z,-2.48
2022-12-11T09:43:37.761Z,-2.08
2022-12-11T09:44:37.917Z,-2.64
2022-12-11T09:45:38.058Z,-2.24
2022-12-11T09:46:38.245Z,-2.48
2022-12-11T09:47:38.374Z,-2.08
2022-12-11T09:48:38.495Z,-2.64
2022-12-11T09:49:38.627Z,-2.32
2022-12-11T09:50:38.779Z,-2.72
2022-12-11T09:51:38.935Z,-2.8
2022-12-11T09:52:39.083Z,-2.88
2022-12-11T09:53:39.232Z,-3.04
2022-12-11T09:54:39.373Z,-2.88
2022-12-11T09:55:39.482Z,-2.8
2022-12-11T09:56:39.636Z,-3.04
2022-12-11T09:57:39.740Z,-3.04
2022-12-11T09:58:39.892Z,-2.8
2022-12-11T09:59:40.036Z,-2.88
2022-12-11T10:00:40.189Z,-2.88
2022-12-11T10:01:40.394Z,-2.72
2022-12-11T10:02:40.528Z,-2.88
2022-12-11T10:03:40.620Z,-2.72
2022-12-11T10:04:40.736Z,-2.48
2022-12-11T10:05:40.911Z,-2.72
2022-12-11T10:06:41.061Z,-2.72
2022-12-11T10:07:41.212Z,-2.88
2022-12-11T10:08:41.355Z,-3.04
2022-12-11T10:09:41.510Z,-3.2
2022-12-11T10:10:41.647Z,-3.12
2022-12-11T10:11:41.810Z,-2.88
2022-12-11T10:12:41.943Z,-2.72
2022-12-11T10:13:42.053Z,-2.88
2022-12-11T10:14:42.310Z,-2.48
2022-12-11T10:15:42.400Z,-2.48
2022-12-11T10:16:42.475Z,-2.32
2022-12-11T10:17:42.614Z,-1.68
2022-12-11T10:18:42.769Z,-1.6
2022-12-11T10:19:42.921Z,-1.52
2022-12-11T10:20:43.061Z,-1.44
2022-12-11T10:21:43.222Z,-1.92
2022-12-11T10:22:43.386Z,-1.68
2022-12-11T10:23:43.535Z,-1.12
2022-12-11T10:25:09.241Z,-0.72
2022-12-11T10:25:43.815Z,-0.88
2022-12-11T10:26:43.971Z,-0.48
2022-12-11T10:27:44.121Z,-0.72
2022-12-11T10:28:44.288Z,-0.48
2022-12-11T10:29:44.428Z,-0.4
2022-12-11T10:30:44.613Z,0
2022-12-11T10:31:44.721Z,-0.32
2022-12-11T10:32:44.885Z,-0.48
2022-12-11T10:33:45.033Z,-0.48
2022-12-11T10:34:45.189Z,-0.32
2022-12-11T10:35:45.342Z,-0.08
2022-12-11T10:36:45.493Z,-0.64
2022-12-11T10:37:45.642Z,-1.28
2022-12-11T10:38:45.736Z,-1.28
2022-12-11T10:39:45.894Z,-1.44
2022-12-11T10:40:46.059Z,-2.08
2022-12-11T10:41:46.198Z,-1.68
2022-12-11T10:42:46.353Z,-1.2
2022-12-11T10:43:46.499Z,-0.8
2022-12-11T10:44:46.610Z,-1.12
2022-12-11T10:45:46.741Z,-1.44
2022-12-11T10:46:46.950Z,-1.44
2022-12-11T10:47:47.061Z,-1.04
2022-12-11T10:48:47.163Z,-0.88
2022-12-11T10:49:47.321Z,-1.12
2022-12-11T10:50:47.460Z,-1.52
2022-12-11T10:51:47.611Z,-1.6
2022-12-11T10:52:47.723Z,-1.44
2022-12-11T10:53:47.868Z,-1.04
2022-12-11T10:54:47.992Z,-1.44
2022-12-11T10:55:48.093Z,-1.28
2022-12-11T10:56:48.235Z,-1.52
2022-12-11T10:57:48.381Z,-1.28
2022-12-11T10:58:48.523Z,-1.68
2022-12-11T10:59:48.673Z,-1.68
2022-12-11T11:00:49.050Z,-1.68
2022-12-11T11:01:48.956Z,-1.68
2022-12-11T11:02:49.120Z,-2.32
2022-12-11T11:03:49.565Z,-2.24
2022-12-11T11:04:49.699Z,-2.08
2022-12-11T11:05:50.433Z,-2.24
2022-12-11T11:06:49.974Z,-2.32
2022-12-11T11:07:50.169Z,-1.92
2022-12-11T11:08:49.911Z,-2
2022-12-11T11:09:49.997Z,-2.08
2022-12-11T11:10:50.137Z,-2.08
2022-12-11T11:11:50.281Z,-2
2022-12-11T11:12:50.451Z,-1.92
2022-12-11T11:13:50.593Z,-1.84
2022-12-11T11:14:50.744Z,-1.92
2022-12-11T11:15:50.944Z,-1.84
2022-12-11T11:16:51.005Z,-2
2022-12-11T11:17:54.426Z,-2
2022-12-11T11:18:51.303Z,-2.24
2022-12-11T11:19:51.456Z,-2.24
2022-12-11T11:20:51.593Z,-2.32
2022-12-11T11:21:51.763Z,-2.08
2022-12-11T11:22:51.908Z,-2.08
2022-12-11T11:23:53.529Z,-2.24
2022-12-11T11:24:52.221Z,-2.4
2022-12-11T11:25:52.358Z,-2.24
2022-12-11T11:27:52.654Z,-2.48
2022-12-11T11:28:52.825Z,-2.4
2022-12-11T11:29:53.282Z,-2.32
2022-12-11T11:30:53.128Z,-2.48
2022-12-11T11:31:53.279Z,-2.48
2022-12-11T11:32:53.448Z,-2.32
2022-12-11T11:33:53.582Z,-2.4
2022-12-11T11:34:53.737Z,-2.64
2022-12-11T11:35:53.931Z,-2.72
2022-12-11T11:36:54.031Z,-2.64
2022-12-11T11:37:54.180Z,-2.24
2022-12-11T11:38:54.346Z,-2
2022-12-11T11:39:54.490Z,-1.84
2022-12-11T11:40:57.076Z,-1.84
2022-12-11T11:41:54.721Z,-2.08
2022-12-11T11:42:54.890Z,-1.92
2022-12-11T11:43:55.034Z,-1.84
2022-12-11T11:44:55.178Z,-2.08
2022-12-11T11:45:55.333Z,-1.84
2022-12-11T11:46:55.583Z,-2
2022-12-11T11:47:55.606Z,-2.72
2022-12-11T11:48:55.747Z,-2.88
2022-12-11T11:49:55.895Z,-2.72
2022-12-11T11:50:56.046Z,-2.24
2022-12-11T11:51:56.196Z,-2.24
2022-12-11T11:52:56.356Z,-2
2022-12-11T11:53:56.505Z,-2.24
2022-12-11T11:54:56.625Z,-2.64
2022-12-11T11:55:56.738Z,-2.64
2022-12-11T11:56:56.912Z,-2.4
2022-12-11T11:57:57.007Z,-2.4
2022-12-11T11:58:57.162Z,-2.4
2022-12-11T11:59:57.265Z,-2.48
2022-12-11T12:00:57.401Z,-2.72
2022-12-11T12:01:57.566Z,-2.48
2022-12-11T12:02:57.739Z,-2.72
2022-12-11T12:03:57.874Z,-2.64
2022-12-11T12:04:57.988Z,-2.8
2022-12-11T12:05:58.119Z,-2.64
2022-12-11T12:06:58.284Z,-2.72
2022-12-11T12:07:58.398Z,-2.88
2022-12-11T12:08:58.522Z,-2.72
2022-12-11T12:09:58.697Z,-2.72
2022-12-11T12:10:58.823Z,-3.04
2022-12-11T12:11:58.985Z,-2.64
2022-12-11T12:12:59.130Z,-2.88
2022-12-11T12:13:59.281Z,-3.28
2022-12-11T12:14:59.381Z,-3.2
2022-12-11T12:15:59.553Z,-3.28
2022-12-11T12:16:59.693Z,-3.28
2022-12-11T12:17:59.785Z,-3.2
2022-12-11T12:18:59.943Z,-3.04
2022-12-11T12:20:00.156Z,-2.88
2022-12-11T12:21:00.240Z,-2.48
2022-12-11T12:22:00.395Z,-2.8
2022-12-11T12:23:00.544Z,-2.88
2022-12-11T12:24:00.698Z,-3.04
2022-12-11T12:25:00.843Z,-3.2
2022-12-11T12:26:01.003Z,-3.44
2022-12-11T12:27:01.152Z,-3.44
2022-12-11T12:28:01.305Z,-3.52
2022-12-11T12:29:01.454Z,-3.28
2022-12-11T12:30:01.606Z,-3.44
2022-12-11T12:31:01.740Z,-3.52
2022-12-11T12:32:01.857Z,-3.52
2022-12-11T12:33:02.020Z,-3.68
2022-12-11T12:34:02.111Z,-3.68
2022-12-11T12:35:02.260Z,-3.68
2022-12-11T12:36:06.745Z,-3.84
2022-12-11T12:37:02.552Z,-3.6
2022-12-11T12:38:02.719Z,-3.44
2022-12-11T12:39:02.958Z,-3.52
2022-12-11T12:40:03.037Z,-3.68
2022-12-11T12:41:03.154Z,-3.68
2022-12-11T12:42:07.409Z,-3.52
2022-12-11T12:43:03.481Z,-3.44
2022-12-11T12:44:03.673Z,-3.2
2022-12-11T12:45:03.771Z,-3.28
2022-12-11T12:46:03.944Z,-3.44
2022-12-11T12:47:04.083Z,-3.52
2022-12-11T12:48:04.221Z,-3.44
2022-12-11T12:49:04.359Z,-3.2
2022-12-11T12:50:04.504Z,-3.2
2022-12-11T12:51:04.585Z,-3.04
2022-12-11T12:52:04.738Z,-3.12
2022-12-11T12:53:04.890Z,-3.12
2022-12-11T12:54:09.077Z,-3.44
2022-12-11T12:55:05.192Z,-3.52
2022-12-11T12:56:05.348Z,-3.12
2022-12-11T12:57:05.496Z,-3.12
2022-12-11T12:58:05.648Z,-3.2
2022-12-11T12:59:05.784Z,-3.44
2022-12-11T13:00:11.184Z,-3.52
2022-12-11T13:01:06.096Z,-3.28
2022-12-11T13:02:06.225Z,-3.2